sensor_id;sensor_type;location;lat;lon;timestamp;P1;durP1;ratioP1;P2;durP2;ratioP2
4021;SDS011;2025;48.260;16.432;2024-02-26T00:00:24;4.95;;;0.90;;
4021;SDS011;2025;48.260;16.432;2024-02-26T00:02:51;5.72;;;2.95;;
4021;SDS011;2025;48.260;16.432;2024-02-26T00:05:19;5.18;;;1.02;;
4021;SDS011;2025;48.260;16.432;2024-02-26T00:07:46;4.53;;;2.85;;
4021;SDS011;2025;48.260;16.432;2024-02-26T00:10:14;5.55;;;2.90;;
4021;SDS011;2025;48.260;16.432;2024-02-26T00:12:41;6.53;;;2.92;;
4021;SDS011;2025;48.260;16.432;2024-02-26T00:15:09;4.60;;;1.13;;
4021;SDS011;2025;48.260;16.432;2024-02-26T00:17:36;5.25;;;3.10;;
4021;SDS011;2025;48.260;16.432;2024-02-26T00:20:04;6.00;;;1.15;;
4021;SDS011;2025;48.260;16.432;2024-02-26T00:22:35;4.03;;;0.63;;
4021;SDS011;2025;48.260;16.432;2024-02-26T00:25:03;7.28;;;1.45;;
4021;SDS011;2025;48.260;16.432;2024-02-26T00:27:31;4.75;;;1.00;;
4021;SDS011;2025;48.260;16.432;2024-02-26T00:29:58;4.20;;;1.40;;
4021;SDS011;2025;48.260;16.432;2024-02-26T00:32:25;4.03;;;0.73;;
4021;SDS011;2025;48.260;16.432;2024-02-26T00:34:52;5.40;;;1.05;;
4021;SDS011;2025;48.260;16.432;2024-02-26T00:37:19;8.63;;;0.85;;
4021;SDS011;2025;48.260;16.432;2024-02-26T00:39:47;4.93;;;1.13;;
4021;SDS011;2025;48.260;16.432;2024-02-26T00:42:14;5.57;;;1.02;;
4021;SDS011;2025;48.260;16.432;2024-02-26T00:44:41;6.20;;;1.02;;
4021;SDS011;2025;48.260;16.432;2024-02-26T00:47:08;6.18;;;0.77;;
4021;SDS011;2025;48.260;16.432;2024-02-26T00:49:36;6.68;;;1.00;;
4021;SDS011;2025;48.260;16.432;2024-02-26T00:52:04;5.82;;;3.97;;
4021;SDS011;2025;48.260;16.432;2024-02-26T00:54:31;5.10;;;1.30;;
4021;SDS011;2025;48.260;16.432;2024-02-26T00:57:00;4.40;;;1.55;;
4021;SDS011;2025;48.260;16.432;2024-02-26T00:59:27;5.32;;;1.25;;
4021;SDS011;2025;48.260;16.432;2024-02-26T01:01:54;5.28;;;1.35;;
4021;SDS011;2025;48.260;16.432;2024-02-26T01:04:21;4.18;;;0.90;;
4021;SDS011;2025;48.260;16.432;2024-02-26T01:06:48;6.20;;;1.10;;
4021;SDS011;2025;48.260;16.432;2024-02-26T01:09:15;7.43;;;1.45;;
4021;SDS011;2025;48.260;16.432;2024-02-26T01:11:43;5.85;;;1.30;;
4021;SDS011;2025;48.260;16.432;2024-02-26T01:14:11;4.75;;;1.40;;
4021;SDS011;2025;48.260;16.432;2024-02-26T01:16:38;6.70;;;1.45;;
4021;SDS011;2025;48.260;16.432;2024-02-26T01:19:05;6.65;;;1.77;;
4021;SDS011;2025;48.260;16.432;2024-02-26T01:21:33;5.38;;;1.88;;
4021;SDS011;2025;48.260;16.432;2024-02-26T01:24:00;6.43;;;2.20;;
4021;SDS011;2025;48.260;16.432;2024-02-26T01:26:27;5.70;;;1.35;;
4021;SDS011;2025;48.260;16.432;2024-02-26T01:28:54;6.90;;;1.63;;
4021;SDS011;2025;48.260;16.432;2024-02-26T01:31:22;5.28;;;2.40;;
4021;SDS011;2025;48.260;16.432;2024-02-26T01:33:49;5.40;;;2.42;;
4021;SDS011;2025;48.260;16.432;2024-02-26T01:36:17;6.25;;;1.90;;
4021;SDS011;2025;48.260;16.432;2024-02-26T01:38:44;6.90;;;1.13;;
4021;SDS011;2025;48.260;16.432;2024-02-26T01:41:11;6.70;;;1.80;;
4021;SDS011;2025;48.260;16.432;2024-02-26T01:43:39;8.52;;;2.13;;
4021;SDS011;2025;48.260;16.432;2024-02-26T01:46:06;6.88;;;2.25;;
4021;SDS011;2025;48.260;16.432;2024-02-26T01:48:40;6.80;;;2.08;;
4021;SDS011;2025;48.260;16.432;2024-02-26T01:51:07;6.85;;;1.67;;
4021;SDS011;2025;48.260;16.432;2024-02-26T01:53:35;5.90;;;1.90;;
4021;SDS011;2025;48.260;16.432;2024-02-26T01:56:02;6.32;;;1.95;;
4021;SDS011;2025;48.260;16.432;2024-02-26T01:58:30;4.68;;;1.52;;
4021;SDS011;2025;48.260;16.432;2024-02-26T02:00:58;6.82;;;3.72;;
4021;SDS011;2025;48.260;16.432;2024-02-26T02:03:25;4.10;;;1.45;;
4021;SDS011;2025;48.260;16.432;2024-02-26T02:05:54;8.77;;;3.72;;
4021;SDS011;2025;48.260;16.432;2024-02-26T02:08:21;5.97;;;1.48;;
4021;SDS011;2025;48.260;16.432;2024-02-26T02:10:49;5.28;;;2.30;;
4021;SDS011;2025;48.260;16.432;2024-02-26T02:13:17;6.10;;;1.92;;
4021;SDS011;2025;48.260;16.432;2024-02-26T02:15:44;7.55;;;3.47;;
4021;SDS011;2025;48.260;16.432;2024-02-26T02:18:11;6.00;;;1.95;;
4021;SDS011;2025;48.260;16.432;2024-02-26T02:20:40;7.72;;;3.75;;
4021;SDS011;2025;48.260;16.432;2024-02-26T02:23:07;6.82;;;1.88;;
4021;SDS011;2025;48.260;16.432;2024-02-26T02:25:34;5.95;;;2.00;;
4021;SDS011;2025;48.260;16.432;2024-02-26T02:28:01;5.28;;;1.48;;
4021;SDS011;2025;48.260;16.432;2024-02-26T02:30:29;4.85;;;1.30;;
4021;SDS011;2025;48.260;16.432;2024-02-26T02:32:58;7.43;;;2.47;;
4021;SDS011;2025;48.260;16.432;2024-02-26T02:35:25;6.43;;;2.22;;
4021;SDS011;2025;48.260;16.432;2024-02-26T02:37:54;6.35;;;1.80;;
4021;SDS011;2025;48.260;16.432;2024-02-26T02:40:22;6.13;;;2.08;;
4021;SDS011;2025;48.260;16.432;2024-02-26T02:42:49;6.53;;;2.03;;
4021;SDS011;2025;48.260;16.432;2024-02-26T02:45:16;6.13;;;2.05;;
4021;SDS011;2025;48.260;16.432;2024-02-26T02:47:43;6.13;;;1.85;;
4021;SDS011;2025;48.260;16.432;2024-02-26T02:50:10;7.30;;;2.17;;
4021;SDS011;2025;48.260;16.432;2024-02-26T02:52:37;7.07;;;2.45;;
4021;SDS011;2025;48.260;16.432;2024-02-26T02:55:09;6.80;;;1.52;;
4021;SDS011;2025;48.260;16.432;2024-02-26T02:57:36;6.80;;;2.42;;
4021;SDS011;2025;48.260;16.432;2024-02-26T03:00:06;5.43;;;1.95;;
4021;SDS011;2025;48.260;16.432;2024-02-26T03:02:34;5.38;;;1.90;;
4021;SDS011;2025;48.260;16.432;2024-02-26T03:05:02;10.15;;;2.50;;
4021;SDS011;2025;48.260;16.432;2024-02-26T03:07:29;6.80;;;1.98;;
4021;SDS011;2025;48.260;16.432;2024-02-26T03:09:56;6.53;;;2.20;;
4021;SDS011;2025;48.260;16.432;2024-02-26T03:12:25;5.25;;;1.90;;
4021;SDS011;2025;48.260;16.432;2024-02-26T03:14:53;8.10;;;1.90;;
4021;SDS011;2025;48.260;16.432;2024-02-26T03:17:20;7.75;;;2.63;;
4021;SDS011;2025;48.260;16.432;2024-02-26T03:19:49;6.88;;;1.73;;
4021;SDS011;2025;48.260;16.432;2024-02-26T03:22:18;7.85;;;2.03;;
4021;SDS011;2025;48.260;16.432;2024-02-26T03:24:45;6.20;;;1.88;;
4021;SDS011;2025;48.260;16.432;2024-02-26T03:27:12;9.45;;;4.47;;
4021;SDS011;2025;48.260;16.432;2024-02-26T03:29:41;9.25;;;3.03;;
4021;SDS011;2025;48.260;16.432;2024-02-26T03:32:08;5.25;;;2.13;;
4021;SDS011;2025;48.260;16.432;2024-02-26T03:34:35;9.05;;;2.75;;
4021;SDS011;2025;48.260;16.432;2024-02-26T03:37:04;7.38;;;2.78;;
4021;SDS011;2025;48.260;16.432;2024-02-26T03:39:31;7.70;;;1.65;;
4021;SDS011;2025;48.260;16.432;2024-02-26T03:41:58;7.95;;;2.72;;
4021;SDS011;2025;48.260;16.432;2024-02-26T03:44:25;8.75;;;2.25;;
4021;SDS011;2025;48.260;16.432;2024-02-26T03:46:54;8.52;;;2.63;;
4021;SDS011;2025;48.260;16.432;2024-02-26T03:49:21;9.10;;;1.73;;
4021;SDS011;2025;48.260;16.432;2024-02-26T03:51:48;8.05;;;1.95;;
4021;SDS011;2025;48.260;16.432;2024-02-26T03:54:15;8.27;;;2.42;;
4021;SDS011;2025;48.260;16.432;2024-02-26T03:56:42;6.75;;;2.08;;
4021;SDS011;2025;48.260;16.432;2024-02-26T03:59:09;5.72;;;1.52;;
4021;SDS011;2025;48.260;16.432;2024-02-26T04:01:37;6.05;;;1.85;;
4021;SDS011;2025;48.260;16.432;2024-02-26T04:04:05;7.25;;;1.80;;
4021;SDS011;2025;48.260;16.432;2024-02-26T04:06:32;7.78;;;1.40;;
4021;SDS011;2025;48.260;16.432;2024-02-26T04:08:59;6.10;;;1.75;;
4021;SDS011;2025;48.260;16.432;2024-02-26T04:11:29;9.93;;;2.03;;
4021;SDS011;2025;48.260;16.432;2024-02-26T04:13:56;6.15;;;1.60;;
4021;SDS011;2025;48.260;16.432;2024-02-26T04:16:23;6.43;;;1.42;;
4021;SDS011;2025;48.260;16.432;2024-02-26T04:18:50;7.20;;;2.00;;
4021;SDS011;2025;48.260;16.432;2024-02-26T04:21:20;7.82;;;2.85;;
4021;SDS011;2025;48.260;16.432;2024-02-26T04:23:47;7.50;;;2.08;;
4021;SDS011;2025;48.260;16.432;2024-02-26T04:26:14;5.55;;;1.92;;
4021;SDS011;2025;48.260;16.432;2024-02-26T04:28:41;6.13;;;2.10;;
4021;SDS011;2025;48.260;16.432;2024-02-26T04:31:08;7.78;;;2.30;;
4021;SDS011;2025;48.260;16.432;2024-02-26T04:33:35;7.68;;;2.63;;
4021;SDS011;2025;48.260;16.432;2024-02-26T04:36:03;6.47;;;2.20;;
4021;SDS011;2025;48.260;16.432;2024-02-26T04:38:32;7.32;;;2.28;;
4021;SDS011;2025;48.260;16.432;2024-02-26T04:40:59;6.70;;;1.77;;
4021;SDS011;2025;48.260;16.432;2024-02-26T04:43:26;8.25;;;3.83;;
4021;SDS011;2025;48.260;16.432;2024-02-26T04:45:53;7.72;;;2.00;;
4021;SDS011;2025;48.260;16.432;2024-02-26T04:48:22;5.90;;;1.65;;
4021;SDS011;2025;48.260;16.432;2024-02-26T04:50:49;6.05;;;1.92;;
4021;SDS011;2025;48.260;16.432;2024-02-26T04:53:16;7.32;;;1.73;;
4021;SDS011;2025;48.260;16.432;2024-02-26T04:55:44;5.43;;;1.77;;
4021;SDS011;2025;48.260;16.432;2024-02-26T04:58:11;6.25;;;1.75;;
4021;SDS011;2025;48.260;16.432;2024-02-26T05:00:38;5.60;;;1.80;;
4021;SDS011;2025;48.260;16.432;2024-02-26T05:03:06;6.82;;;2.17;;
4021;SDS011;2025;48.260;16.432;2024-02-26T05:05:33;8.30;;;1.98;;
4021;SDS011;2025;48.260;16.432;2024-02-26T05:08:00;7.57;;;2.38;;
4021;SDS011;2025;48.260;16.432;2024-02-26T05:10:28;8.13;;;2.97;;
4021;SDS011;2025;48.260;16.432;2024-02-26T05:12:56;8.05;;;2.50;;
4021;SDS011;2025;48.260;16.432;2024-02-26T05:15:23;9.35;;;3.38;;
4021;SDS011;2025;48.260;16.432;2024-02-26T05:17:50;8.02;;;3.20;;
4021;SDS011;2025;48.260;16.432;2024-02-26T05:20:18;9.98;;;3.85;;
4021;SDS011;2025;48.260;16.432;2024-02-26T05:22:45;8.43;;;3.08;;
4021;SDS011;2025;48.260;16.432;2024-02-26T05:25:14;9.57;;;2.88;;
4021;SDS011;2025;48.260;16.432;2024-02-26T05:27:41;6.85;;;2.53;;
4021;SDS011;2025;48.260;16.432;2024-02-26T05:30:11;8.68;;;2.95;;
4021;SDS011;2025;48.260;16.432;2024-02-26T05:32:39;10.13;;;4.38;;
4021;SDS011;2025;48.260;16.432;2024-02-26T05:35:06;8.35;;;2.75;;
4021;SDS011;2025;48.260;16.432;2024-02-26T05:37:33;9.73;;;3.13;;
4021;SDS011;2025;48.260;16.432;2024-02-26T05:40:01;8.38;;;2.70;;
4021;SDS011;2025;48.260;16.432;2024-02-26T05:42:29;11.57;;;4.53;;
4021;SDS011;2025;48.260;16.432;2024-02-26T05:44:56;8.43;;;4.47;;
4021;SDS011;2025;48.260;16.432;2024-02-26T05:47:25;8.93;;;3.45;;
4021;SDS011;2025;48.260;16.432;2024-02-26T05:49:52;8.00;;;2.85;;
4021;SDS011;2025;48.260;16.432;2024-02-26T05:52:20;7.72;;;2.75;;
4021;SDS011;2025;48.260;16.432;2024-02-26T05:54:47;7.45;;;2.85;;
4021;SDS011;2025;48.260;16.432;2024-02-26T05:57:14;9.65;;;2.88;;
4021;SDS011;2025;48.260;16.432;2024-02-26T05:59:41;10.48;;;3.25;;
4021;SDS011;2025;48.260;16.432;2024-02-26T06:02:08;10.35;;;5.35;;
4021;SDS011;2025;48.260;16.432;2024-02-26T06:04:36;10.85;;;3.20;;
4021;SDS011;2025;48.260;16.432;2024-02-26T06:07:04;7.75;;;2.90;;
4021;SDS011;2025;48.260;16.432;2024-02-26T06:09:31;10.60;;;3.58;;
4021;SDS011;2025;48.260;16.432;2024-02-26T06:11:58;7.15;;;3.10;;
4021;SDS011;2025;48.260;16.432;2024-02-26T06:14:25;7.95;;;3.63;;
4021;SDS011;2025;48.260;16.432;2024-02-26T06:16:53;9.40;;;3.00;;
4021;SDS011;2025;48.260;16.432;2024-02-26T06:19:20;10.32;;;3.05;;
4021;SDS011;2025;48.260;16.432;2024-02-26T06:21:48;8.23;;;3.70;;
4021;SDS011;2025;48.260;16.432;2024-02-26T06:24:16;7.18;;;2.70;;
4021;SDS011;2025;48.260;16.432;2024-02-26T06:26:43;8.50;;;3.03;;
4021;SDS011;2025;48.260;16.432;2024-02-26T06:29:10;9.85;;;2.50;;
4021;SDS011;2025;48.260;16.432;2024-02-26T06:31:37;8.50;;;2.58;;
4021;SDS011;2025;48.260;16.432;2024-02-26T06:34:04;5.78;;;2.30;;
4021;SDS011;2025;48.260;16.432;2024-02-26T06:36:31;7.95;;;2.90;;
4021;SDS011;2025;48.260;16.432;2024-02-26T06:38:59;7.82;;;2.15;;
4021;SDS011;2025;48.260;16.432;2024-02-26T06:41:27;10.15;;;3.55;;
4021;SDS011;2025;48.260;16.432;2024-02-26T06:43:55;7.55;;;1.90;;
4021;SDS011;2025;48.260;16.432;2024-02-26T06:46:22;8.13;;;2.47;;
4021;SDS011;2025;48.260;16.432;2024-02-26T06:48:49;7.90;;;2.85;;
4021;SDS011;2025;48.260;16.432;2024-02-26T06:51:16;7.15;;;3.00;;
4021;SDS011;2025;48.260;16.432;2024-02-26T06:53:43;8.70;;;2.60;;
4021;SDS011;2025;48.260;16.432;2024-02-26T06:56:11;9.20;;;2.97;;
4021;SDS011;2025;48.260;16.432;2024-02-26T06:58:39;8.68;;;4.55;;
4021;SDS011;2025;48.260;16.432;2024-02-26T07:01:06;10.30;;;3.47;;
4021;SDS011;2025;48.260;16.432;2024-02-26T07:03:33;8.57;;;2.53;;
4021;SDS011;2025;48.260;16.432;2024-02-26T07:06:00;7.25;;;2.35;;
4021;SDS011;2025;48.260;16.432;2024-02-26T07:08:27;7.72;;;2.30;;
4021;SDS011;2025;48.260;16.432;2024-02-26T07:10:54;8.23;;;3.03;;
4021;SDS011;2025;48.260;16.432;2024-02-26T07:13:23;8.63;;;5.18;;
4021;SDS011;2025;48.260;16.432;2024-02-26T07:15:50;10.00;;;2.78;;
4021;SDS011;2025;48.260;16.432;2024-02-26T07:18:17;11.27;;;3.88;;
4021;SDS011;2025;48.260;16.432;2024-02-26T07:20:44;7.32;;;2.63;;
4021;SDS011;2025;48.260;16.432;2024-02-26T07:23:11;8.80;;;2.42;;
4021;SDS011;2025;48.260;16.432;2024-02-26T07:25:38;7.95;;;2.83;;
4021;SDS011;2025;48.260;16.432;2024-02-26T07:28:06;8.65;;;2.60;;
4021;SDS011;2025;48.260;16.432;2024-02-26T07:30:34;8.93;;;2.80;;
4021;SDS011;2025;48.260;16.432;2024-02-26T07:33:01;7.65;;;3.25;;
4021;SDS011;2025;48.260;16.432;2024-02-26T07:35:28;8.02;;;4.20;;
4021;SDS011;2025;48.260;16.432;2024-02-26T07:37:55;6.90;;;2.85;;
4021;SDS011;2025;48.260;16.432;2024-02-26T07:40:22;6.78;;;3.22;;
4021;SDS011;2025;48.260;16.432;2024-02-26T07:42:49;7.53;;;4.07;;
4021;SDS011;2025;48.260;16.432;2024-02-26T07:45:16;7.88;;;2.88;;
4021;SDS011;2025;48.260;16.432;2024-02-26T07:47:46;6.80;;;2.38;;
4021;SDS011;2025;48.260;16.432;2024-02-26T07:50:13;7.00;;;3.17;;
4021;SDS011;2025;48.260;16.432;2024-02-26T11:03:36;4.43;;;0.93;;
4021;SDS011;2025;48.260;16.432;2024-02-26T11:06:04;4.63;;;1.00;;
4021;SDS011;2025;48.260;16.432;2024-02-26T11:08:32;4.97;;;0.65;;
4021;SDS011;2025;48.260;16.432;2024-02-26T11:10:59;5.20;;;1.02;;
4021;SDS011;2025;48.260;16.432;2024-02-26T11:13:27;5.07;;;1.02;;
4021;SDS011;2025;48.260;16.432;2024-02-26T11:15:57;3.83;;;0.90;;
4021;SDS011;2025;48.260;16.432;2024-02-26T11:18:25;5.10;;;0.63;;
4021;SDS011;2025;48.260;16.432;2024-02-26T11:20:55;3.85;;;0.85;;
4021;SDS011;2025;48.260;16.432;2024-02-26T11:23:23;5.20;;;0.50;;
4021;SDS011;2025;48.260;16.432;2024-02-26T11:25:50;4.32;;;0.93;;
4021;SDS011;2025;48.260;16.432;2024-02-26T11:28:18;3.88;;;0.63;;
4021;SDS011;2025;48.260;16.432;2024-02-26T11:30:47;2.72;;;0.50;;
4021;SDS011;2025;48.260;16.432;2024-02-26T11:33:17;3.92;;;0.50;;
4021;SDS011;2025;48.260;16.432;2024-02-26T11:35:46;3.20;;;0.60;;
4021;SDS011;2025;48.260;16.432;2024-02-26T11:38:19;4.32;;;1.23;;
4021;SDS011;2025;48.260;16.432;2024-02-26T11:40:47;4.85;;;0.63;;
4021;SDS011;2025;48.260;16.432;2024-02-26T11:43:15;6.10;;;0.90;;
4021;SDS011;2025;48.260;16.432;2024-02-26T11:45:48;4.10;;;0.68;;
4021;SDS011;2025;48.260;16.432;2024-02-26T11:48:19;4.20;;;1.02;;
4021;SDS011;2025;48.260;16.432;2024-02-26T11:50:48;3.75;;;0.88;;
4021;SDS011;2025;48.260;16.432;2024-02-26T11:53:31;2.55;;;0.30;;
4021;SDS011;2025;48.260;16.432;2024-02-26T11:56:13;3.20;;;0.52;;
4021;SDS011;2025;48.260;16.432;2024-02-26T11:58:45;3.42;;;0.40;;
4021;SDS011;2025;48.260;16.432;2024-02-26T12:04:17;3.97;;;0.45;;
4021;SDS011;2025;48.260;16.432;2024-02-26T12:06:46;5.18;;;0.55;;
4021;SDS011;2025;48.260;16.432;2024-02-26T12:12:04;3.03;;;0.38;;
4021;SDS011;2025;48.260;16.432;2024-02-26T12:14:33;3.20;;;0.60;;
4021;SDS011;2025;48.260;16.432;2024-02-26T12:17:02;3.22;;;0.40;;
4021;SDS011;2025;48.260;16.432;2024-02-26T12:19:32;2.47;;;0.47;;
4021;SDS011;2025;48.260;16.432;2024-02-26T12:22:00;1.90;;;0.60;;
4021;SDS011;2025;48.260;16.432;2024-02-26T12:24:28;4.10;;;0.60;;
4021;SDS011;2025;48.260;16.432;2024-02-26T12:29:33;3.92;;;2.75;;
4021;SDS011;2025;48.260;16.432;2024-02-26T12:32:01;4.60;;;1.98;;
4021;SDS011;2025;48.260;16.432;2024-02-26T12:34:31;2.67;;;1.33;;
4021;SDS011;2025;48.260;16.432;2024-02-26T12:36:58;6.95;;;2.17;;
4021;SDS011;2025;48.260;16.432;2024-02-26T12:39:25;4.28;;;2.05;;
4021;SDS011;2025;48.260;16.432;2024-02-26T12:41:52;4.00;;;1.58;;
4021;SDS011;2025;48.260;16.432;2024-02-26T12:44:24;3.90;;;1.95;;
4021;SDS011;2025;48.260;16.432;2024-02-26T12:47:00;3.00;;;1.35;;
4021;SDS011;2025;48.260;16.432;2024-02-26T12:49:28;3.20;;;1.83;;
4021;SDS011;2025;48.260;16.432;2024-02-26T12:51:55;4.30;;;2.10;;
4021;SDS011;2025;48.260;16.432;2024-02-26T12:54:26;3.58;;;1.75;;
4021;SDS011;2025;48.260;16.432;2024-02-26T12:56:57;5.63;;;2.25;;
4021;SDS011;2025;48.260;16.432;2024-02-26T12:59:25;3.90;;;2.20;;
4021;SDS011;2025;48.260;16.432;2024-02-26T13:01:53;4.03;;;1.65;;
4021;SDS011;2025;48.260;16.432;2024-02-26T13:04:22;3.35;;;1.67;;
4021;SDS011;2025;48.260;16.432;2024-02-26T13:06:49;3.25;;;1.38;;
4021;SDS011;2025;48.260;16.432;2024-02-26T13:09:16;3.67;;;1.65;;
4021;SDS011;2025;48.260;16.432;2024-02-26T13:11:44;4.90;;;1.73;;
4021;SDS011;2025;48.260;16.432;2024-02-26T13:14:18;3.20;;;1.73;;
4021;SDS011;2025;48.260;16.432;2024-02-26T13:16:54;2.17;;;1.27;;
4021;SDS011;2025;48.260;16.432;2024-02-26T13:19:23;2.80;;;1.70;;
4021;SDS011;2025;48.260;16.432;2024-02-26T13:21:50;4.05;;;1.92;;
4021;SDS011;2025;48.260;16.432;2024-02-26T13:24:19;2.70;;;1.55;;
4021;SDS011;2025;48.260;16.432;2024-02-26T13:26:47;3.95;;;1.67;;
4021;SDS011;2025;48.260;16.432;2024-02-26T13:29:20;2.78;;;1.95;;
4021;SDS011;2025;48.260;16.432;2024-02-26T13:31:47;2.83;;;1.92;;
4021;SDS011;2025;48.260;16.432;2024-02-26T13:34:24;3.40;;;1.52;;
4021;SDS011;2025;48.260;16.432;2024-02-26T13:36:52;3.10;;;1.25;;
4021;SDS011;2025;48.260;16.432;2024-02-26T13:39:23;2.70;;;1.10;;
4021;SDS011;2025;48.260;16.432;2024-02-26T13:41:50;4.00;;;1.60;;
4021;SDS011;2025;48.260;16.432;2024-02-26T13:44:30;2.88;;;1.40;;
4021;SDS011;2025;48.260;16.432;2024-02-26T13:47:04;4.15;;;1.70;;
4021;SDS011;2025;48.260;16.432;2024-02-26T13:49:33;2.28;;;1.48;;
4021;SDS011;2025;48.260;16.432;2024-02-26T13:52:00;3.20;;;1.65;;
4021;SDS011;2025;48.260;16.432;2024-02-26T13:54:27;2.40;;;0.77;;
4021;SDS011;2025;48.260;16.432;2024-02-26T13:56:54;3.53;;;1.30;;
4021;SDS011;2025;48.260;16.432;2024-02-26T13:59:21;3.42;;;1.60;;
4021;SDS011;2025;48.260;16.432;2024-02-26T14:01:48;4.00;;;1.75;;
4021;SDS011;2025;48.260;16.432;2024-02-26T14:06:46;2.83;;;1.27;;
4021;SDS011;2025;48.260;16.432;2024-02-26T14:09:13;3.63;;;1.30;;
4021;SDS011;2025;48.260;16.432;2024-02-26T14:11:44;2.58;;;1.60;;
4021;SDS011;2025;48.260;16.432;2024-02-26T14:14:11;2.78;;;1.40;;
4021;SDS011;2025;48.260;16.432;2024-02-26T14:16:38;1.73;;;0.20;;
4021;SDS011;2025;48.260;16.432;2024-02-26T14:19:06;3.10;;;1.27;;
4021;SDS011;2025;48.260;16.432;2024-02-26T15:16:50;3.05;;;1.80;;
4021;SDS011;2025;48.260;16.432;2024-02-26T15:19:17;3.13;;;1.38;;
4021;SDS011;2025;48.260;16.432;2024-02-26T15:21:44;2.85;;;1.67;;
4021;SDS011;2025;48.260;16.432;2024-02-26T15:24:12;3.05;;;2.08;;
4021;SDS011;2025;48.260;16.432;2024-02-26T15:26:41;3.10;;;1.95;;
4021;SDS011;2025;48.260;16.432;2024-02-26T15:29:08;3.10;;;2.65;;
4021;SDS011;2025;48.260;16.432;2024-02-26T15:34:04;3.30;;;2.30;;
4021;SDS011;2025;48.260;16.432;2024-02-26T15:36:31;6.03;;;2.08;;
4021;SDS011;2025;48.260;16.432;2024-02-26T15:38:59;3.00;;;2.05;;
4021;SDS011;2025;48.260;16.432;2024-02-26T15:41:27;3.03;;;1.73;;
4021;SDS011;2025;48.260;16.432;2024-02-26T15:43:54;5.05;;;2.45;;
4021;SDS011;2025;48.260;16.432;2024-02-26T15:46:22;4.13;;;1.40;;
4021;SDS011;2025;48.260;16.432;2024-02-26T15:48:49;2.95;;;1.90;;
4021;SDS011;2025;48.260;16.432;2024-02-26T15:51:22;4.25;;;1.98;;
4021;SDS011;2025;48.260;16.432;2024-02-26T15:53:50;3.33;;;2.13;;
4021;SDS011;2025;48.260;16.432;2024-02-26T15:56:17;2.55;;;1.60;;
4021;SDS011;2025;48.260;16.432;2024-02-26T15:58:48;2.72;;;2.00;;
4021;SDS011;2025;48.260;16.432;2024-02-26T16:01:16;3.45;;;2.47;;
4021;SDS011;2025;48.260;16.432;2024-02-26T16:03:43;4.28;;;2.15;;
4021;SDS011;2025;48.260;16.432;2024-02-26T16:06:12;2.65;;;1.98;;
4021;SDS011;2025;48.260;16.432;2024-02-26T16:08:46;2.95;;;1.80;;
4021;SDS011;2025;48.260;16.432;2024-02-26T16:11:13;3.13;;;0.60;;
4021;SDS011;2025;48.260;16.432;2024-02-26T16:13:40;4.15;;;1.75;;
4021;SDS011;2025;48.260;16.432;2024-02-26T16:16:09;2.50;;;1.00;;
4021;SDS011;2025;48.260;16.432;2024-02-26T16:21:08;3.17;;;2.00;;
4021;SDS011;2025;48.260;16.432;2024-02-26T16:23:35;2.55;;;1.90;;
4021;SDS011;2025;48.260;16.432;2024-02-26T16:26:04;3.58;;;2.42;;
4021;SDS011;2025;48.260;16.432;2024-02-26T16:28:31;2.70;;;1.75;;
4021;SDS011;2025;48.260;16.432;2024-02-26T16:30:58;3.28;;;1.70;;
4021;SDS011;2025;48.260;16.432;2024-02-26T16:33:25;3.25;;;2.72;;
4021;SDS011;2025;48.260;16.432;2024-02-26T16:35:53;2.95;;;2.35;;
4021;SDS011;2025;48.260;16.432;2024-02-26T16:38:20;4.82;;;2.95;;
4021;SDS011;2025;48.260;16.432;2024-02-26T16:40:48;3.13;;;1.63;;
4021;SDS011;2025;48.260;16.432;2024-02-26T16:43:16;3.15;;;1.52;;
4021;SDS011;2025;48.260;16.432;2024-02-26T16:48:11;3.25;;;2.60;;
4021;SDS011;2025;48.260;16.432;2024-02-26T16:50:38;2.53;;;0.68;;
4021;SDS011;2025;48.260;16.432;2024-02-26T16:53:05;5.55;;;3.10;;
4021;SDS011;2025;48.260;16.432;2024-02-26T16:55:32;3.33;;;1.60;;
4021;SDS011;2025;48.260;16.432;2024-02-26T16:58:00;3.13;;;2.25;;
4021;SDS011;2025;48.260;16.432;2024-02-26T17:00:28;3.25;;;2.53;;
4021;SDS011;2025;48.260;16.432;2024-02-26T17:02:55;2.92;;;2.25;;
4021;SDS011;2025;48.260;16.432;2024-02-26T17:05:23;3.55;;;2.53;;
4021;SDS011;2025;48.260;16.432;2024-02-26T17:07:51;3.67;;;2.25;;
4021;SDS011;2025;48.260;16.432;2024-02-26T17:10:18;3.42;;;2.63;;
4021;SDS011;2025;48.260;16.432;2024-02-26T17:12:45;3.33;;;1.85;;
4021;SDS011;2025;48.260;16.432;2024-02-26T17:15:12;3.33;;;1.48;;
4021;SDS011;2025;48.260;16.432;2024-02-26T17:17:40;4.88;;;2.15;;
4021;SDS011;2025;48.260;16.432;2024-02-26T17:20:08;3.67;;;2.03;;
4021;SDS011;2025;48.260;16.432;2024-02-26T17:22:35;4.47;;;2.42;;
4021;SDS011;2025;48.260;16.432;2024-02-26T17:25:03;2.63;;;1.67;;
4021;SDS011;2025;48.260;16.432;2024-02-26T17:27:30;5.32;;;2.92;;
4021;SDS011;2025;48.260;16.432;2024-02-26T17:29:58;4.05;;;2.58;;
4021;SDS011;2025;48.260;16.432;2024-02-26T17:32:25;4.40;;;2.05;;
4021;SDS011;2025;48.260;16.432;2024-02-26T17:34:53;4.18;;;1.70;;
4021;SDS011;2025;48.260;16.432;2024-02-26T17:37:20;3.72;;;2.35;;
4021;SDS011;2025;48.260;16.432;2024-02-26T17:39:47;3.50;;;2.10;;
4021;SDS011;2025;48.260;16.432;2024-02-26T17:42:14;3.85;;;1.73;;
4021;SDS011;2025;48.260;16.432;2024-02-26T17:44:41;3.88;;;2.28;;
4021;SDS011;2025;48.260;16.432;2024-02-26T17:47:09;3.97;;;2.45;;
4021;SDS011;2025;48.260;16.432;2024-02-26T17:49:36;4.30;;;2.75;;
4021;SDS011;2025;48.260;16.432;2024-02-26T17:52:06;3.50;;;2.45;;
4021;SDS011;2025;48.260;16.432;2024-02-26T17:54:33;5.20;;;2.35;;
4021;SDS011;2025;48.260;16.432;2024-02-26T17:57:00;4.32;;;1.88;;
4021;SDS011;2025;48.260;16.432;2024-02-26T17:59:27;6.10;;;2.10;;
4021;SDS011;2025;48.260;16.432;2024-02-26T18:01:56;3.83;;;1.67;;
4021;SDS011;2025;48.260;16.432;2024-02-26T18:04:24;4.97;;;2.45;;
4021;SDS011;2025;48.260;16.432;2024-02-26T18:06:51;4.72;;;0.65;;
4021;SDS011;2025;48.260;16.432;2024-02-26T18:09:19;3.22;;;1.95;;
4021;SDS011;2025;48.260;16.432;2024-02-26T18:11:46;4.78;;;1.77;;
4021;SDS011;2025;48.260;16.432;2024-02-26T18:14:13;4.55;;;2.63;;
4021;SDS011;2025;48.260;16.432;2024-02-26T18:16:41;4.38;;;2.05;;
4021;SDS011;2025;48.260;16.432;2024-02-26T18:19:08;3.83;;;2.15;;
4021;SDS011;2025;48.260;16.432;2024-02-26T18:21:52;5.38;;;3.42;;
4021;SDS011;2025;48.260;16.432;2024-02-26T18:24:22;3.45;;;2.70;;
4021;SDS011;2025;48.260;16.432;2024-02-26T18:26:49;3.78;;;2.75;;
4021;SDS011;2025;48.260;16.432;2024-02-26T18:29:17;4.22;;;2.50;;
4021;SDS011;2025;48.260;16.432;2024-02-26T18:31:44;4.05;;;2.67;;
4021;SDS011;2025;48.260;16.432;2024-02-26T18:34:11;4.15;;;2.63;;
4021;SDS011;2025;48.260;16.432;2024-02-26T18:36:41;5.07;;;1.63;;
4021;SDS011;2025;48.260;16.432;2024-02-26T18:39:08;5.88;;;2.15;;
4021;SDS011;2025;48.260;16.432;2024-02-26T18:41:37;4.15;;;2.08;;
4021;SDS011;2025;48.260;16.432;2024-02-26T18:44:04;4.75;;;2.25;;
4021;SDS011;2025;48.260;16.432;2024-02-26T18:46:31;4.95;;;2.70;;
4021;SDS011;2025;48.260;16.432;2024-02-26T18:49:00;3.85;;;2.08;;
4021;SDS011;2025;48.260;16.432;2024-02-26T18:51:27;4.35;;;1.95;;
4021;SDS011;2025;48.260;16.432;2024-02-26T18:53:54;4.38;;;1.85;;
4021;SDS011;2025;48.260;16.432;2024-02-26T18:56:21;3.85;;;1.63;;
4021;SDS011;2025;48.260;16.432;2024-02-26T18:58:49;3.60;;;1.98;;
4021;SDS011;2025;48.260;16.432;2024-02-26T19:01:16;4.72;;;3.00;;
4021;SDS011;2025;48.260;16.432;2024-02-26T19:03:43;4.20;;;2.33;;
4021;SDS011;2025;48.260;16.432;2024-02-26T19:06:11;3.72;;;1.85;;
4021;SDS011;2025;48.260;16.432;2024-02-26T19:08:38;4.05;;;2.22;;
4021;SDS011;2025;48.260;16.432;2024-02-26T19:11:06;4.40;;;2.55;;
4021;SDS011;2025;48.260;16.432;2024-02-26T19:13:33;3.75;;;1.98;;
4021;SDS011;2025;48.260;16.432;2024-02-26T19:16:02;4.47;;;2.35;;
4021;SDS011;2025;48.260;16.432;2024-02-26T19:18:29;5.05;;;2.03;;
4021;SDS011;2025;48.260;16.432;2024-02-26T19:20:57;4.75;;;2.83;;
4021;SDS011;2025;48.260;16.432;2024-02-26T19:23:24;3.53;;;3.05;;
4021;SDS011;2025;48.260;16.432;2024-02-26T19:25:51;3.15;;;2.13;;
4021;SDS011;2025;48.260;16.432;2024-02-26T19:28:18;3.50;;;2.05;;